Pagrindinis puslapis
METAR-TAF:

METAR-TAF

Oro uostai :

Hatjajus, Tailandas

platuma: 06-55N, ilguma: 100-26E, Aukštis: 27 m

Dabartinis oras

Ataskaita buvo paskelbta 37 minutes, ne 04:30 UTC
Vėjas 12 kt iš Rytų su gūsio iki 22 kt
Temperatūra 32°C
Drėgmė 49%
Slėgis 1011 hPa
Matomumas 10 km arba daugiau
Mažai debesys ne aukštis 2000 ft

METAR: VTSS 290430Z 08012G22KT 9999 FEW020 32/20 Q1011 NOSIG

Laikas: 12:07 (05:07 UTC)

Prognozė

Ataskaita buvo paskelbta 6 valandos ir 7 minutes, ne 23:00 UTC
Prognozė galioja nuo 29 metu 00 UTC su 29 metu 24 UTC
Vėjas 3 kt iš Vakarų/Šiaurės Vakarų
Matomumas 10 km arba daugiau
Mažai debesys ne aukštis 2000 ft
Tapsmas
nuo 29 metu 03 UTC su 29 metu 05 UTC
Vėjas 13 kt iš Rytų/Šiaurės Rytų
Tapsmas
nuo 29 metu 16 UTC su 29 metu 18 UTC
Vėjas 3 kt iš Vakarų/Šiaurės Vakarų

TAF: VTSS 282300Z 2900/2924 30003KT 9999 FEW020 BECMG 2903/2905 06013KT BECMG 2916/2918 30003KT

Orai ataskaitas ir orų prognozės (METAR, TAF).

turimą stotys yra geltonos ir raudonos taškus žemėlapyje.

Perkelti pele per norėdami pamatyti stoties vardą.

Tada spustelėkite, norėdami matyti oro stebėjimo ir prognozės.

Norėdami pakeisti žemėlapį: spustelėkite ant žalios mygtukų su juodo kryžiaus žemyn,; žalią mygtuką su brūkšneliu, jei norite nutolinti; arba žalių rodyklių gretimoms žemėlapius.


METAR-TAF: